sensor_id;sensor_type;location;lat;lon;timestamp;P1;durP1;ratioP1;P2;durP2;ratioP2
30505;SDS011;17292;51.600;4.994;2023-04-06T00:00:18;9.90;;;3.08;;
30505;SDS011;17292;51.600;4.994;2023-04-06T00:02:44;9.63;;;3.10;;
30505;SDS011;17292;51.600;4.994;2023-04-06T00:05:10;7.05;;;2.70;;
30505;SDS011;17292;51.600;4.994;2023-04-06T00:07:36;9.88;;;3.03;;
30505;SDS011;17292;51.600;4.994;2023-04-06T00:10:03;8.48;;;2.90;;
30505;SDS011;17292;51.600;4.994;2023-04-06T00:12:29;9.32;;;3.20;;
30505;SDS011;17292;51.600;4.994;2023-04-06T00:14:55;8.55;;;3.28;;
30505;SDS011;17292;51.600;4.994;2023-04-06T00:17:21;12.07;;;3.10;;
30505;SDS011;17292;51.600;4.994;2023-04-06T00:19:48;7.13;;;2.70;;
30505;SDS011;17292;51.600;4.994;2023-04-06T00:22:14;7.57;;;2.75;;
30505;SDS011;17292;51.600;4.994;2023-04-06T00:24:40;10.52;;;2.50;;
30505;SDS011;17292;51.600;4.994;2023-04-06T00:27:06;9.02;;;2.83;;
30505;SDS011;17292;51.600;4.994;2023-04-06T00:29:32;6.82;;;2.88;;
30505;SDS011;17292;51.600;4.994;2023-04-06T00:31:58;6.65;;;2.97;;
30505;SDS011;17292;51.600;4.994;2023-04-06T00:34:25;9.23;;;3.13;;
30505;SDS011;17292;51.600;4.994;2023-04-06T00:36:51;7.43;;;2.70;;
30505;SDS011;17292;51.600;4.994;2023-04-06T00:39:17;8.00;;;3.30;;
30505;SDS011;17292;51.600;4.994;2023-04-06T00:41:47;9.18;;;2.72;;
30505;SDS011;17292;51.600;4.994;2023-04-06T00:44:15;6.38;;;2.20;;
30505;SDS011;17292;51.600;4.994;2023-04-06T00:46:41;7.10;;;2.78;;
30505;SDS011;17292;51.600;4.994;2023-04-06T00:49:07;6.00;;;2.97;;
30505;SDS011;17292;51.600;4.994;2023-04-06T00:51:33;6.47;;;2.80;;
30505;SDS011;17292;51.600;4.994;2023-04-06T00:53:59;7.28;;;2.80;;
30505;SDS011;17292;51.600;4.994;2023-04-06T00:56:25;6.18;;;2.60;;
30505;SDS011;17292;51.600;4.994;2023-04-06T00:58:52;7.25;;;2.88;;
30505;SDS011;17292;51.600;4.994;2023-04-06T01:01:18;7.72;;;2.80;;
30505;SDS011;17292;51.600;4.994;2023-04-06T01:03:44;8.07;;;2.58;;
30505;SDS011;17292;51.600;4.994;2023-04-06T01:06:14;14.40;;;3.10;;
30505;SDS011;17292;51.600;4.994;2023-04-06T01:08:40;6.05;;;2.58;;
30505;SDS011;17292;51.600;4.994;2023-04-06T01:11:06;7.68;;;2.42;;
30505;SDS011;17292;51.600;4.994;2023-04-06T01:13:32;10.18;;;2.58;;
30505;SDS011;17292;51.600;4.994;2023-04-06T01:15:58;7.75;;;2.70;;
30505;SDS011;17292;51.600;4.994;2023-04-06T01:18:28;7.80;;;2.97;;
30505;SDS011;17292;51.600;4.994;2023-04-06T01:20:54;11.93;;;3.25;;
30505;SDS011;17292;51.600;4.994;2023-04-06T01:23:21;7.03;;;2.50;;
30505;SDS011;17292;51.600;4.994;2023-04-06T01:25:47;7.97;;;2.50;;
30505;SDS011;17292;51.600;4.994;2023-04-06T01:28:13;8.07;;;3.10;;
30505;SDS011;17292;51.600;4.994;2023-04-06T01:30:39;8.48;;;2.80;;
30505;SDS011;17292;51.600;4.994;2023-04-06T01:33:06;6.53;;;2.47;;
30505;SDS011;17292;51.600;4.994;2023-04-06T01:35:32;6.07;;;2.75;;
30505;SDS011;17292;51.600;4.994;2023-04-06T01:37:58;7.65;;;2.60;;
30505;SDS011;17292;51.600;4.994;2023-04-06T01:40:25;7.75;;;2.75;;
30505;SDS011;17292;51.600;4.994;2023-04-06T01:42:51;5.43;;;2.45;;
30505;SDS011;17292;51.600;4.994;2023-04-06T01:45:17;6.07;;;2.53;;
30505;SDS011;17292;51.600;4.994;2023-04-06T01:47:43;8.20;;;2.40;;
30505;SDS011;17292;51.600;4.994;2023-04-06T01:50:09;6.80;;;2.50;;
30505;SDS011;17292;51.600;4.994;2023-04-06T01:52:36;7.55;;;2.85;;
30505;SDS011;17292;51.600;4.994;2023-04-06T01:55:02;10.35;;;3.00;;
30505;SDS011;17292;51.600;4.994;2023-04-06T01:57:29;12.45;;;2.95;;
30505;SDS011;17292;51.600;4.994;2023-04-06T01:59:55;7.15;;;2.60;;
30505;SDS011;17292;51.600;4.994;2023-04-06T02:02:21;8.88;;;2.88;;
30505;SDS011;17292;51.600;4.994;2023-04-06T02:04:47;7.43;;;2.45;;
30505;SDS011;17292;51.600;4.994;2023-04-06T02:07:13;5.38;;;2.70;;
30505;SDS011;17292;51.600;4.994;2023-04-06T02:09:39;8.43;;;2.78;;
30505;SDS011;17292;51.600;4.994;2023-04-06T02:12:05;4.72;;;2.28;;
30505;SDS011;17292;51.600;4.994;2023-04-06T02:14:32;8.50;;;2.83;;
30505;SDS011;17292;51.600;4.994;2023-04-06T02:16:58;9.65;;;3.08;;
30505;SDS011;17292;51.600;4.994;2023-04-06T02:19:25;5.20;;;2.60;;
30505;SDS011;17292;51.600;4.994;2023-04-06T02:21:51;12.27;;;3.10;;
30505;SDS011;17292;51.600;4.994;2023-04-06T02:24:17;8.88;;;2.58;;
30505;SDS011;17292;51.600;4.994;2023-04-06T02:26:43;9.20;;;2.97;;
30505;SDS011;17292;51.600;4.994;2023-04-06T02:29:09;8.75;;;2.65;;
30505;SDS011;17292;51.600;4.994;2023-04-06T02:31:36;7.10;;;2.95;;
30505;SDS011;17292;51.600;4.994;2023-04-06T02:34:02;5.75;;;2.63;;
30505;SDS011;17292;51.600;4.994;2023-04-06T02:36:28;4.88;;;2.72;;
30505;SDS011;17292;51.600;4.994;2023-04-06T02:38:54;6.43;;;2.75;;
30505;SDS011;17292;51.600;4.994;2023-04-06T02:41:21;6.13;;;2.25;;
30505;SDS011;17292;51.600;4.994;2023-04-06T02:43:47;5.68;;;2.40;;
30505;SDS011;17292;51.600;4.994;2023-04-06T02:46:13;7.15;;;2.42;;
30505;SDS011;17292;51.600;4.994;2023-04-06T02:48:39;5.47;;;2.63;;
30505;SDS011;17292;51.600;4.994;2023-04-06T02:51:05;6.38;;;2.80;;
30505;SDS011;17292;51.600;4.994;2023-04-06T02:53:31;8.13;;;3.33;;
30505;SDS011;17292;51.600;4.994;2023-04-06T02:55:58;6.28;;;2.42;;
30505;SDS011;17292;51.600;4.994;2023-04-06T02:58:24;6.95;;;2.47;;
30505;SDS011;17292;51.600;4.994;2023-04-06T03:00:50;7.07;;;2.60;;
30505;SDS011;17292;51.600;4.994;2023-04-06T03:03:16;6.65;;;2.75;;
30505;SDS011;17292;51.600;4.994;2023-04-06T03:05:42;5.40;;;2.65;;
30505;SDS011;17292;51.600;4.994;2023-04-06T03:08:08;7.10;;;2.70;;
30505;SDS011;17292;51.600;4.994;2023-04-06T03:10:35;4.90;;;2.58;;
30505;SDS011;17292;51.600;4.994;2023-04-06T03:13:01;5.55;;;2.17;;
30505;SDS011;17292;51.600;4.994;2023-04-06T03:15:27;5.43;;;2.60;;
30505;SDS011;17292;51.600;4.994;2023-04-06T03:17:53;4.82;;;2.45;;
30505;SDS011;17292;51.600;4.994;2023-04-06T03:20:19;5.57;;;2.58;;
30505;SDS011;17292;51.600;4.994;2023-04-06T03:22:45;4.28;;;2.15;;
30505;SDS011;17292;51.600;4.994;2023-04-06T03:25:11;4.95;;;2.45;;
30505;SDS011;17292;51.600;4.994;2023-04-06T03:27:37;4.47;;;2.55;;
30505;SDS011;17292;51.600;4.994;2023-04-06T03:30:04;7.15;;;2.60;;
30505;SDS011;17292;51.600;4.994;2023-04-06T03:32:30;3.55;;;2.20;;
30505;SDS011;17292;51.600;4.994;2023-04-06T03:34:56;5.18;;;2.50;;
30505;SDS011;17292;51.600;4.994;2023-04-06T03:37:23;5.65;;;2.47;;
30505;SDS011;17292;51.600;4.994;2023-04-06T03:39:49;7.63;;;2.47;;
30505;SDS011;17292;51.600;4.994;2023-04-06T03:42:15;7.05;;;2.53;;
30505;SDS011;17292;51.600;4.994;2023-04-06T03:44:41;8.80;;;2.67;;
30505;SDS011;17292;51.600;4.994;2023-04-06T03:47:07;4.50;;;2.22;;
30505;SDS011;17292;51.600;4.994;2023-04-06T03:49:33;3.88;;;2.17;;
30505;SDS011;17292;51.600;4.994;2023-04-06T03:52:00;5.07;;;2.42;;
30505;SDS011;17292;51.600;4.994;2023-04-06T03:54:26;5.40;;;2.63;;
30505;SDS011;17292;51.600;4.994;2023-04-06T03:56:52;6.80;;;2.28;;
30505;SDS011;17292;51.600;4.994;2023-04-06T03:59:18;6.65;;;3.17;;
30505;SDS011;17292;51.600;4.994;2023-04-06T04:01:45;4.60;;;2.40;;
30505;SDS011;17292;51.600;4.994;2023-04-06T04:04:11;8.15;;;2.88;;
30505;SDS011;17292;51.600;4.994;2023-04-06T04:06:37;5.30;;;2.17;;
30505;SDS011;17292;51.600;4.994;2023-04-06T04:09:03;6.18;;;2.95;;
30505;SDS011;17292;51.600;4.994;2023-04-06T04:11:29;6.55;;;2.80;;
30505;SDS011;17292;51.600;4.994;2023-04-06T04:13:55;9.50;;;3.40;;
30505;SDS011;17292;51.600;4.994;2023-04-06T04:16:22;6.53;;;2.90;;
30505;SDS011;17292;51.600;4.994;2023-04-06T04:18:48;6.22;;;3.00;;
30505;SDS011;17292;51.600;4.994;2023-04-06T04:21:14;5.63;;;2.90;;
30505;SDS011;17292;51.600;4.994;2023-04-06T04:23:40;8.07;;;3.28;;
30505;SDS011;17292;51.600;4.994;2023-04-06T04:26:06;5.63;;;2.92;;
30505;SDS011;17292;51.600;4.994;2023-04-06T04:28:32;9.07;;;3.47;;
30505;SDS011;17292;51.600;4.994;2023-04-06T04:30:58;8.77;;;3.60;;
30505;SDS011;17292;51.600;4.994;2023-04-06T04:33:25;6.20;;;3.20;;
30505;SDS011;17292;51.600;4.994;2023-04-06T04:35:51;6.40;;;2.83;;
30505;SDS011;17292;51.600;4.994;2023-04-06T04:38:17;6.15;;;2.88;;
30505;SDS011;17292;51.600;4.994;2023-04-06T04:40:43;6.15;;;3.10;;
30505;SDS011;17292;51.600;4.994;2023-04-06T04:43:09;6.25;;;3.63;;
30505;SDS011;17292;51.600;4.994;2023-04-06T04:45:35;5.43;;;3.13;;
30505;SDS011;17292;51.600;4.994;2023-04-06T04:48:02;5.78;;;3.33;;
30505;SDS011;17292;51.600;4.994;2023-04-06T04:50:29;6.55;;;2.72;;
30505;SDS011;17292;51.600;4.994;2023-04-06T04:52:56;5.38;;;3.25;;
30505;SDS011;17292;51.600;4.994;2023-04-06T04:55:22;5.88;;;2.67;;
30505;SDS011;17292;51.600;4.994;2023-04-06T04:57:48;7.05;;;2.97;;
30505;SDS011;17292;51.600;4.994;2023-04-06T05:00:14;6.03;;;3.03;;
30505;SDS011;17292;51.600;4.994;2023-04-06T05:02:40;5.80;;;3.15;;
30505;SDS011;17292;51.600;4.994;2023-04-06T05:05:06;6.90;;;3.28;;
30505;SDS011;17292;51.600;4.994;2023-04-06T05:07:33;7.25;;;3.15;;
30505;SDS011;17292;51.600;4.994;2023-04-06T05:09:59;6.05;;;2.72;;
30505;SDS011;17292;51.600;4.994;2023-04-06T05:12:25;5.13;;;2.90;;
30505;SDS011;17292;51.600;4.994;2023-04-06T05:14:53;4.80;;;2.88;;
30505;SDS011;17292;51.600;4.994;2023-04-06T05:17:19;5.78;;;2.50;;
30505;SDS011;17292;51.600;4.994;2023-04-06T05:19:45;5.30;;;2.15;;
30505;SDS011;17292;51.600;4.994;2023-04-06T05:22:11;6.25;;;2.50;;
30505;SDS011;17292;51.600;4.994;2023-04-06T05:24:39;5.82;;;2.80;;
30505;SDS011;17292;51.600;4.994;2023-04-06T05:27:05;7.60;;;2.80;;
30505;SDS011;17292;51.600;4.994;2023-04-06T05:29:31;8.95;;;2.70;;
30505;SDS011;17292;51.600;4.994;2023-04-06T05:31:57;10.63;;;2.72;;
30505;SDS011;17292;51.600;4.994;2023-04-06T05:34:24;7.22;;;2.53;;
30505;SDS011;17292;51.600;4.994;2023-04-06T05:36:50;7.38;;;3.08;;
30505;SDS011;17292;51.600;4.994;2023-04-06T05:39:16;6.47;;;3.10;;
30505;SDS011;17292;51.600;4.994;2023-04-06T05:41:44;12.07;;;3.25;;
30505;SDS011;17292;51.600;4.994;2023-04-06T05:44:10;9.93;;;3.38;;
30505;SDS011;17292;51.600;4.994;2023-04-06T05:46:36;10.85;;;3.38;;
30505;SDS011;17292;51.600;4.994;2023-04-06T05:49:03;8.70;;;2.78;;
30505;SDS011;17292;51.600;4.994;2023-04-06T05:51:29;5.75;;;2.50;;
30505;SDS011;17292;51.600;4.994;2023-04-06T05:53:55;11.15;;;2.63;;
30505;SDS011;17292;51.600;4.994;2023-04-06T05:56:21;10.57;;;2.95;;
30505;SDS011;17292;51.600;4.994;2023-04-06T05:58:48;13.82;;;3.03;;
30505;SDS011;17292;51.600;4.994;2023-04-06T06:01:14;7.95;;;2.42;;
30505;SDS011;17292;51.600;4.994;2023-04-06T06:03:41;5.45;;;2.80;;
30505;SDS011;17292;51.600;4.994;2023-04-06T06:06:07;15.20;;;2.80;;
30505;SDS011;17292;51.600;4.994;2023-04-06T06:08:33;8.68;;;2.60;;
30505;SDS011;17292;51.600;4.994;2023-04-06T06:10:59;7.20;;;2.58;;
30505;SDS011;17292;51.600;4.994;2023-04-06T06:13:25;8.32;;;2.65;;
30505;SDS011;17292;51.600;4.994;2023-04-06T06:15:52;15.68;;;3.58;;
30505;SDS011;17292;51.600;4.994;2023-04-06T06:18:18;8.20;;;2.85;;
30505;SDS011;17292;51.600;4.994;2023-04-06T06:20:44;9.43;;;2.67;;
30505;SDS011;17292;51.600;4.994;2023-04-06T06:23:10;7.25;;;2.92;;
30505;SDS011;17292;51.600;4.994;2023-04-06T06:25:37;6.55;;;2.00;;
30505;SDS011;17292;51.600;4.994;2023-04-06T06:28:03;9.75;;;3.13;;
30505;SDS011;17292;51.600;4.994;2023-04-06T06:30:29;11.38;;;2.92;;
30505;SDS011;17292;51.600;4.994;2023-04-06T06:32:55;14.30;;;2.92;;
30505;SDS011;17292;51.600;4.994;2023-04-06T06:35:21;13.00;;;3.08;;
30505;SDS011;17292;51.600;4.994;2023-04-06T06:37:47;11.57;;;3.38;;
30505;SDS011;17292;51.600;4.994;2023-04-06T06:40:14;13.48;;;3.17;;
30505;SDS011;17292;51.600;4.994;2023-04-06T06:42:42;13.88;;;3.33;;
30505;SDS011;17292;51.600;4.994;2023-04-06T06:45:08;10.13;;;2.88;;
30505;SDS011;17292;51.600;4.994;2023-04-06T06:47:35;9.30;;;3.10;;
30505;SDS011;17292;51.600;4.994;2023-04-06T06:50:01;11.23;;;3.10;;
30505;SDS011;17292;51.600;4.994;2023-04-06T06:52:28;10.85;;;2.85;;
30505;SDS011;17292;51.600;4.994;2023-04-06T06:54:54;19.02;;;3.53;;
30505;SDS011;17292;51.600;4.994;2023-04-06T06:57:21;10.07;;;2.40;;
30505;SDS011;17292;51.600;4.994;2023-04-06T06:59:47;8.52;;;2.78;;
30505;SDS011;17292;51.600;4.994;2023-04-06T07:02:13;7.35;;;3.22;;
30505;SDS011;17292;51.600;4.994;2023-04-06T07:04:39;10.63;;;2.80;;
30505;SDS011;17292;51.600;4.994;2023-04-06T07:07:06;16.63;;;3.17;;
30505;SDS011;17292;51.600;4.994;2023-04-06T07:09:33;10.27;;;3.03;;
30505;SDS011;17292;51.600;4.994;2023-04-06T07:11:59;8.82;;;2.83;;
30505;SDS011;17292;51.600;4.994;2023-04-06T07:14:26;6.65;;;2.67;;
30505;SDS011;17292;51.600;4.994;2023-04-06T07:16:52;15.65;;;3.25;;
30505;SDS011;17292;51.600;4.994;2023-04-06T07:19:18;7.93;;;3.00;;
30505;SDS011;17292;51.600;4.994;2023-04-06T07:21:44;14.43;;;3.55;;
30505;SDS011;17292;51.600;4.994;2023-04-06T07:24:10;11.02;;;3.03;;
30505;SDS011;17292;51.600;4.994;2023-04-06T07:26:36;11.20;;;2.67;;
30505;SDS011;17292;51.600;4.994;2023-04-06T07:29:02;9.27;;;2.90;;
30505;SDS011;17292;51.600;4.994;2023-04-06T07:31:29;6.75;;;2.70;;
30505;SDS011;17292;51.600;4.994;2023-04-06T07:33:55;14.15;;;3.03;;
30505;SDS011;17292;51.600;4.994;2023-04-06T07:36:21;18.17;;;4.00;;
30505;SDS011;17292;51.600;4.994;2023-04-06T07:38:47;23.55;;;4.00;;
30505;SDS011;17292;51.600;4.994;2023-04-06T07:41:14;26.98;;;4.95;;
30505;SDS011;17292;51.600;4.994;2023-04-06T07:43:40;28.60;;;4.38;;
30505;SDS011;17292;51.600;4.994;2023-04-06T07:46:07;23.35;;;4.13;;
30505;SDS011;17292;51.600;4.994;2023-04-06T07:48:33;22.65;;;4.65;;
30505;SDS011;17292;51.600;4.994;2023-04-06T07:51:02;18.17;;;4.10;;
30505;SDS011;17292;51.600;4.994;2023-04-06T07:53:29;19.98;;;4.05;;
30505;SDS011;17292;51.600;4.994;2023-04-06T07:55:56;24.77;;;3.90;;
30505;SDS011;17292;51.600;4.994;2023-04-06T07:58:22;19.55;;;3.72;;
30505;SDS011;17292;51.600;4.994;2023-04-06T08:00:48;24.98;;;3.88;;
30505;SDS011;17292;51.600;4.994;2023-04-06T08:03:14;23.00;;;3.90;;
30505;SDS011;17292;51.600;4.994;2023-04-06T08:05:41;17.60;;;3.38;;
30505;SDS011;17292;51.600;4.994;2023-04-06T08:08:08;19.90;;;3.97;;
30505;SDS011;17292;51.600;4.994;2023-04-06T08:10:34;26.73;;;3.55;;
30505;SDS011;17292;51.600;4.994;2023-04-06T08:13:01;21.58;;;4.30;;
30505;SDS011;17292;51.600;4.994;2023-04-06T08:15:27;15.48;;;3.22;;
30505;SDS011;17292;51.600;4.994;2023-04-06T08:17:53;23.67;;;3.80;;
30505;SDS011;17292;51.600;4.994;2023-04-06T08:20:22;16.63;;;4.13;;
30505;SDS011;17292;51.600;4.994;2023-04-06T08:22:48;14.48;;;3.22;;
30505;SDS011;17292;51.600;4.994;2023-04-06T08:25:14;25.50;;;4.40;;
30505;SDS011;17292;51.600;4.994;2023-04-06T08:27:40;19.55;;;4.30;;
30505;SDS011;17292;51.600;4.994;2023-04-06T08:30:06;23.58;;;4.00;;
30505;SDS011;17292;51.600;4.994;2023-04-06T08:32:33;22.63;;;4.18;;
30505;SDS011;17292;51.600;4.994;2023-04-06T08:34:59;14.68;;;3.22;;
30505;SDS011;17292;51.600;4.994;2023-04-06T08:37:25;20.15;;;3.40;;
30505;SDS011;17292;51.600;4.994;2023-04-06T08:39:51;22.17;;;4.13;;
30505;SDS011;17292;51.600;4.994;2023-04-06T08:42:21;13.75;;;3.67;;
30505;SDS011;17292;51.600;4.994;2023-04-06T08:44:48;21.30;;;3.38;;
30505;SDS011;17292;51.600;4.994;2023-04-06T08:47:16;17.15;;;3.70;;
30505;SDS011;17292;51.600;4.994;2023-04-06T08:49:42;16.27;;;3.78;;
30505;SDS011;17292;51.600;4.994;2023-04-06T08:52:09;15.57;;;3.95;;
30505;SDS011;17292;51.600;4.994;2023-04-06T08:54:36;17.80;;;3.88;;
30505;SDS011;17292;51.600;4.994;2023-04-06T08:57:02;17.23;;;3.80;;
30505;SDS011;17292;51.600;4.994;2023-04-06T08:59:28;16.98;;;3.13;;
30505;SDS011;17292;51.600;4.994;2023-04-06T09:01:55;19.42;;;3.33;;
30505;SDS011;17292;51.600;4.994;2023-04-06T09:04:21;16.52;;;3.60;;
30505;SDS011;17292;51.600;4.994;2023-04-06T09:06:48;33.15;;;4.63;;
30505;SDS011;17292;51.600;4.994;2023-04-06T09:09:15;30.60;;;4.03;;
30505;SDS011;17292;51.600;4.994;2023-04-06T09:11:42;28.58;;;4.35;;
30505;SDS011;17292;51.600;4.994;2023-04-06T09:14:08;19.48;;;4.25;;
30505;SDS011;17292;51.600;4.994;2023-04-06T09:16:41;31.95;;;4.95;;
30505;SDS011;17292;51.600;4.994;2023-04-06T09:19:07;28.73;;;4.20;;
30505;SDS011;17292;51.600;4.994;2023-04-06T09:21:34;23.08;;;3.95;;
30505;SDS011;17292;51.600;4.994;2023-04-06T09:24:01;18.38;;;4.20;;
30505;SDS011;17292;51.600;4.994;2023-04-06T09:26:28;26.55;;;3.45;;
30505;SDS011;17292;51.600;4.994;2023-04-06T09:28:55;18.88;;;4.07;;
30505;SDS011;17292;51.600;4.994;2023-04-06T09:31:24;28.45;;;4.47;;
30505;SDS011;17292;51.600;4.994;2023-04-06T09:33:51;26.88;;;3.72;;
30505;SDS011;17292;51.600;4.994;2023-04-06T09:36:17;23.65;;;4.68;;
30505;SDS011;17292;51.600;4.994;2023-04-06T09:38:54;20.50;;;3.55;;
30505;SDS011;17292;51.600;4.994;2023-04-06T09:41:24;18.80;;;3.88;;
30505;SDS011;17292;51.600;4.994;2023-04-06T09:43:51;29.05;;;4.30;;
30505;SDS011;17292;51.600;4.994;2023-04-06T09:46:17;27.85;;;4.35;;
30505;SDS011;17292;51.600;4.994;2023-04-06T09:48:47;17.48;;;3.83;;
30505;SDS011;17292;51.600;4.994;2023-04-06T09:51:15;25.83;;;4.35;;
30505;SDS011;17292;51.600;4.994;2023-04-06T09:53:42;21.48;;;3.83;;
30505;SDS011;17292;51.600;4.994;2023-04-06T09:56:11;16.45;;;3.60;;
30505;SDS011;17292;51.600;4.994;2023-04-06T09:58:38;12.70;;;3.67;;
30505;SDS011;17292;51.600;4.994;2023-04-06T10:01:07;17.63;;;4.35;;
30505;SDS011;17292;51.600;4.994;2023-04-06T10:03:45;21.17;;;4.22;;
30505;SDS011;17292;51.600;4.994;2023-04-06T10:06:13;25.77;;;4.30;;
30505;SDS011;17292;51.600;4.994;2023-04-06T10:08:39;26.42;;;4.07;;
30505;SDS011;17292;51.600;4.994;2023-04-06T10:11:06;21.13;;;3.70;;
30505;SDS011;17292;51.600;4.994;2023-04-06T10:13:33;29.95;;;4.13;;
30505;SDS011;17292;51.600;4.994;2023-04-06T10:15:59;26.90;;;4.40;;
30505;SDS011;17292;51.600;4.994;2023-04-06T10:18:28;13.32;;;3.83;;
30505;SDS011;17292;51.600;4.994;2023-04-06T10:21:06;23.38;;;4.38;;
30505;SDS011;17292;51.600;4.994;2023-04-06T10:23:36;21.50;;;5.05;;
30505;SDS011;17292;51.600;4.994;2023-04-06T10:26:04;27.90;;;4.72;;
30505;SDS011;17292;51.600;4.994;2023-04-06T10:28:31;20.98;;;3.85;;
30505;SDS011;17292;51.600;4.994;2023-04-06T10:31:01;22.90;;;4.45;;
30505;SDS011;17292;51.600;4.994;2023-04-06T10:33:28;27.27;;;4.72;;
30505;SDS011;17292;51.600;4.994;2023-04-06T10:35:54;28.10;;;4.78;;
30505;SDS011;17292;51.600;4.994;2023-04-06T10:38:20;21.63;;;4.30;;
30505;SDS011;17292;51.600;4.994;2023-04-06T10:40:48;27.48;;;4.80;;
30505;SDS011;17292;51.600;4.994;2023-04-06T10:43:20;34.70;;;4.90;;
30505;SDS011;17292;51.600;4.994;2023-04-06T10:45:56;22.83;;;4.30;;
30505;SDS011;17292;51.600;4.994;2023-04-06T10:48:22;24.27;;;4.80;;
30505;SDS011;17292;51.600;4.994;2023-04-06T10:50:50;19.45;;;4.13;;
30505;SDS011;17292;51.600;4.994;2023-04-06T10:53:22;32.70;;;5.35;;
30505;SDS011;17292;51.600;4.994;2023-04-06T10:55:49;25.75;;;4.45;;
30505;SDS011;17292;51.600;4.994;2023-04-06T10:58:16;23.30;;;4.85;;
30505;SDS011;17292;51.600;4.994;2023-04-06T11:00:45;28.42;;;4.53;;
30505;SDS011;17292;51.600;4.994;2023-04-06T11:03:12;16.63;;;4.18;;
30505;SDS011;17292;51.600;4.994;2023-04-06T11:05:38;22.98;;;4.45;;
30505;SDS011;17292;51.600;4.994;2023-04-06T11:08:05;30.88;;;4.68;;
30505;SDS011;17292;51.600;4.994;2023-04-06T11:10:31;28.95;;;4.43;;
30505;SDS011;17292;51.600;4.994;2023-04-06T11:12:57;34.95;;;4.57;;
30505;SDS011;17292;51.600;4.994;2023-04-06T11:15:23;30.77;;;4.75;;
30505;SDS011;17292;51.600;4.994;2023-04-06T11:17:50;21.98;;;4.65;;
30505;SDS011;17292;51.600;4.994;2023-04-06T11:20:16;29.02;;;5.35;;
30505;SDS011;17292;51.600;4.994;2023-04-06T11:22:50;17.30;;;3.92;;
30505;SDS011;17292;51.600;4.994;2023-04-06T11:25:17;29.05;;;4.68;;
30505;SDS011;17292;51.600;4.994;2023-04-06T11:27:43;33.65;;;5.30;;
30505;SDS011;17292;51.600;4.994;2023-04-06T11:30:10;26.80;;;5.03;;
30505;SDS011;17292;51.600;4.994;2023-04-06T11:32:40;28.33;;;5.60;;
30505;SDS011;17292;51.600;4.994;2023-04-06T11:35:19;36.35;;;5.53;;
30505;SDS011;17292;51.600;4.994;2023-04-06T11:37:46;28.85;;;6.00;;
30505;SDS011;17292;51.600;4.994;2023-04-06T11:40:12;32.88;;;5.50;;
30505;SDS011;17292;51.600;4.994;2023-04-06T11:42:38;30.52;;;5.25;;
30505;SDS011;17292;51.600;4.994;2023-04-06T11:45:04;36.00;;;5.53;;
30505;SDS011;17292;51.600;4.994;2023-04-06T11:47:34;35.88;;;5.88;;
30505;SDS011;17292;51.600;4.994;2023-04-06T11:50:07;29.58;;;5.20;;
30505;SDS011;17292;51.600;4.994;2023-04-06T11:52:34;32.38;;;5.38;;
30505;SDS011;17292;51.600;4.994;2023-04-06T11:55:09;28.92;;;5.07;;
30505;SDS011;17292;51.600;4.994;2023-04-06T11:57:36;20.95;;;4.55;;
30505;SDS011;17292;51.600;4.994;2023-04-06T12:00:02;29.40;;;4.50;;
30505;SDS011;17292;51.600;4.994;2023-04-06T12:02:29;27.10;;;4.70;;
30505;SDS011;17292;51.600;4.994;2023-04-06T12:04:57;29.20;;;5.15;;
30505;SDS011;17292;51.600;4.994;2023-04-06T12:07:23;27.75;;;4.72;;
30505;SDS011;17292;51.600;4.994;2023-04-06T12:09:49;26.73;;;4.43;;
30505;SDS011;17292;51.600;4.994;2023-04-06T12:12:15;29.80;;;4.93;;
30505;SDS011;17292;51.600;4.994;2023-04-06T12:14:41;24.50;;;5.22;;
30505;SDS011;17292;51.600;4.994;2023-04-06T12:17:07;18.55;;;4.60;;
30505;SDS011;17292;51.600;4.994;2023-04-06T12:19:33;23.65;;;4.28;;
30505;SDS011;17292;51.600;4.994;2023-04-06T12:22:00;28.05;;;5.15;;
30505;SDS011;17292;51.600;4.994;2023-04-06T12:24:27;50.00;;;6.60;;
30505;SDS011;17292;51.600;4.994;2023-04-06T12:26:53;34.90;;;5.38;;
30505;SDS011;17292;51.600;4.994;2023-04-06T12:29:20;91.97;;;8.45;;
30505;SDS011;17292;51.600;4.994;2023-04-06T12:31:46;48.80;;;6.15;;
30505;SDS011;17292;51.600;4.994;2023-04-06T12:34:12;41.28;;;6.18;;
30505;SDS011;17292;51.600;4.994;2023-04-06T12:36:38;46.75;;;5.75;;
30505;SDS011;17292;51.600;4.994;2023-04-06T12:39:04;27.95;;;5.30;;
30505;SDS011;17292;51.600;4.994;2023-04-06T12:41:31;28.75;;;4.68;;
30505;SDS011;17292;51.600;4.994;2023-04-06T12:43:57;27.17;;;4.80;;
30505;SDS011;17292;51.600;4.994;2023-04-06T12:46:27;40.50;;;5.22;;
30505;SDS011;17292;51.600;4.994;2023-04-06T12:48:55;26.52;;;5.20;;
30505;SDS011;17292;51.600;4.994;2023-04-06T12:51:23;31.27;;;5.28;;
30505;SDS011;17292;51.600;4.994;2023-04-06T12:53:50;29.80;;;5.00;;
30505;SDS011;17292;51.600;4.994;2023-04-06T12:56:16;27.75;;;4.63;;
30505;SDS011;17292;51.600;4.994;2023-04-06T12:58:43;25.65;;;4.65;;
30505;SDS011;17292;51.600;4.994;2023-04-06T13:01:09;33.85;;;5.72;;
30505;SDS011;17292;51.600;4.994;2023-04-06T13:03:38;30.52;;;4.63;;
30505;SDS011;17292;51.600;4.994;2023-04-06T13:06:04;30.05;;;5.38;;
30505;SDS011;17292;51.600;4.994;2023-04-06T13:08:30;27.60;;;5.15;;
30505;SDS011;17292;51.600;4.994;2023-04-06T13:11:03;26.30;;;5.03;;
30505;SDS011;17292;51.600;4.994;2023-04-06T13:13:30;37.38;;;5.57;;
30505;SDS011;17292;51.600;4.994;2023-04-06T13:16:01;32.80;;;4.75;;
30505;SDS011;17292;51.600;4.994;2023-04-06T13:18:28;35.60;;;6.32;;
30505;SDS011;17292;51.600;4.994;2023-04-06T13:20:55;30.75;;;4.82;;
30505;SDS011;17292;51.600;4.994;2023-04-06T13:23:21;30.40;;;5.40;;
30505;SDS011;17292;51.600;4.994;2023-04-06T13:25:47;32.90;;;5.45;;
30505;SDS011;17292;51.600;4.994;2023-04-06T13:28:14;35.63;;;4.90;;
30505;SDS011;17292;51.600;4.994;2023-04-06T13:30:40;30.25;;;4.70;;
30505;SDS011;17292;51.600;4.994;2023-04-06T13:33:06;29.17;;;5.38;;
30505;SDS011;17292;51.600;4.994;2023-04-06T13:35:32;34.63;;;6.00;;
30505;SDS011;17292;51.600;4.994;2023-04-06T13:38:00;24.58;;;4.60;;
30505;SDS011;17292;51.600;4.994;2023-04-06T13:40:26;38.25;;;5.15;;
30505;SDS011;17292;51.600;4.994;2023-04-06T13:42:53;39.53;;;5.70;;
30505;SDS011;17292;51.600;4.994;2023-04-06T13:45:19;29.73;;;6.05;;
30505;SDS011;17292;51.600;4.994;2023-04-06T13:47:45;32.30;;;4.88;;
30505;SDS011;17292;51.600;4.994;2023-04-06T13:50:11;33.50;;;5.25;;
30505;SDS011;17292;51.600;4.994;2023-04-06T13:52:37;44.75;;;6.10;;
30505;SDS011;17292;51.600;4.994;2023-04-06T13:55:04;46.15;;;5.13;;
30505;SDS011;17292;51.600;4.994;2023-04-06T13:57:30;32.47;;;5.25;;
30505;SDS011;17292;51.600;4.994;2023-04-06T13:59:56;33.33;;;5.30;;
30505;SDS011;17292;51.600;4.994;2023-04-06T14:02:22;37.15;;;6.47;;
30505;SDS011;17292;51.600;4.994;2023-04-06T14:04:52;26.67;;;4.93;;
30505;SDS011;17292;51.600;4.994;2023-04-06T14:07:20;25.70;;;5.47;;
30505;SDS011;17292;51.600;4.994;2023-04-06T14:09:47;28.52;;;5.22;;
30505;SDS011;17292;51.600;4.994;2023-04-06T14:12:13;30.75;;;5.25;;
30505;SDS011;17292;51.600;4.994;2023-04-06T14:14:39;33.30;;;6.10;;
30505;SDS011;17292;51.600;4.994;2023-04-06T14:17:05;22.25;;;4.95;;
30505;SDS011;17292;51.600;4.994;2023-04-06T14:19:31;32.00;;;5.35;;
30505;SDS011;17292;51.600;4.994;2023-04-06T14:21:57;30.52;;;5.18;;
30505;SDS011;17292;51.600;4.994;2023-04-06T14:24:24;29.58;;;5.03;;
30505;SDS011;17292;51.600;4.994;2023-04-06T14:26:50;30.60;;;5.90;;
30505;SDS011;17292;51.600;4.994;2023-04-06T14:29:16;33.28;;;5.05;;
30505;SDS011;17292;51.600;4.994;2023-04-06T14:31:42;32.65;;;5.90;;
30505;SDS011;17292;51.600;4.994;2023-04-06T14:34:08;28.00;;;4.20;;
30505;SDS011;17292;51.600;4.994;2023-04-06T14:36:34;28.60;;;4.82;;